sensor_id;sensor_type;location;lat;lon;timestamp;temperature;humidity
41922;DHT22;27609;51.002;5.354;2023-04-28T00:00:44;12.10;99.90
41922;DHT22;27609;51.002;5.354;2023-04-28T00:03:12;12.10;99.90
41922;DHT22;27609;51.002;5.354;2023-04-28T00:05:37;12.10;99.90
41922;DHT22;27609;51.002;5.354;2023-04-28T00:08:03;12.20;99.90
41922;DHT22;27609;51.002;5.354;2023-04-28T00:10:32;12.20;99.90
41922;DHT22;27609;51.002;5.354;2023-04-28T00:12:58;12.20;99.90
41922;DHT22;27609;51.002;5.354;2023-04-28T00:15:24;12.30;99.90
41922;DHT22;27609;51.002;5.354;2023-04-28T00:17:50;12.30;99.90
41922;DHT22;27609;51.002;5.354;2023-04-28T00:20:15;12.30;99.90
41922;DHT22;27609;51.002;5.354;2023-04-28T00:22:41;12.30;99.90
41922;DHT22;27609;51.002;5.354;2023-04-28T00:25:07;12.30;99.90
41922;DHT22;27609;51.002;5.354;2023-04-28T00:27:33;12.30;99.90
41922;DHT22;27609;51.002;5.354;2023-04-28T00:30:00;12.20;99.90
41922;DHT22;27609;51.002;5.354;2023-04-28T00:32:25;12.30;99.90
41922;DHT22;27609;51.002;5.354;2023-04-28T00:34:51;12.20;99.90
41922;DHT22;27609;51.002;5.354;2023-04-28T00:37:18;12.10;99.90
41922;DHT22;27609;51.002;5.354;2023-04-28T00:39:43;11.90;99.90
41922;DHT22;27609;51.002;5.354;2023-04-28T00:42:12;11.90;99.90
41922;DHT22;27609;51.002;5.354;2023-04-28T00:44:38;11.70;99.90
41922;DHT22;27609;51.002;5.354;2023-04-28T00:47:05;11.50;99.90
41922;DHT22;27609;51.002;5.354;2023-04-28T00:49:31;11.50;99.90
41922;DHT22;27609;51.002;5.354;2023-04-28T00:52:00;11.50;99.90
41922;DHT22;27609;51.002;5.354;2023-04-28T00:54:29;11.50;99.90
41922;DHT22;27609;51.002;5.354;2023-04-28T00:56:55;11.50;99.90
41922;DHT22;27609;51.002;5.354;2023-04-28T00:59:22;11.50;99.90
41922;DHT22;27609;51.002;5.354;2023-04-28T01:01:48;11.40;99.90
41922;DHT22;27609;51.002;5.354;2023-04-28T01:04:16;11.20;99.90
41922;DHT22;27609;51.002;5.354;2023-04-28T01:06:43;11.00;99.90
41922;DHT22;27609;51.002;5.354;2023-04-28T01:09:09;11.10;99.90
41922;DHT22;27609;51.002;5.354;2023-04-28T01:11:34;11.20;99.90
41922;DHT22;27609;51.002;5.354;2023-04-28T01:14:01;11.20;99.90
41922;DHT22;27609;51.002;5.354;2023-04-28T01:16:26;11.30;99.90
41922;DHT22;27609;51.002;5.354;2023-04-28T01:18:53;11.40;99.90
41922;DHT22;27609;51.002;5.354;2023-04-28T01:21:34;11.40;99.90
41922;DHT22;27609;51.002;5.354;2023-04-28T01:24:00;11.20;99.90
41922;DHT22;27609;51.002;5.354;2023-04-28T01:26:26;11.30;99.90
41922;DHT22;27609;51.002;5.354;2023-04-28T01:28:52;11.40;99.90
41922;DHT22;27609;51.002;5.354;2023-04-28T01:31:17;11.40;99.90
41922;DHT22;27609;51.002;5.354;2023-04-28T01:33:43;11.20;99.90
41922;DHT22;27609;51.002;5.354;2023-04-28T01:36:09;11.30;99.90
41922;DHT22;27609;51.002;5.354;2023-04-28T01:38:34;11.30;99.90
41922;DHT22;27609;51.002;5.354;2023-04-28T01:41:00;11.30;99.90
41922;DHT22;27609;51.002;5.354;2023-04-28T01:43:27;11.40;99.90
41922;DHT22;27609;51.002;5.354;2023-04-28T01:45:52;11.40;99.90
41922;DHT22;27609;51.002;5.354;2023-04-28T01:48:18;11.40;99.90
41922;DHT22;27609;51.002;5.354;2023-04-28T01:50:44;11.40;99.90
41922;DHT22;27609;51.002;5.354;2023-04-28T01:53:09;11.20;99.90
41922;DHT22;27609;51.002;5.354;2023-04-28T01:55:37;11.20;99.90
41922;DHT22;27609;51.002;5.354;2023-04-28T01:58:02;11.20;99.90
41922;DHT22;27609;51.002;5.354;2023-04-28T02:00:28;11.20;99.90
41922;DHT22;27609;51.002;5.354;2023-04-28T02:02:54;11.20;99.90
41922;DHT22;27609;51.002;5.354;2023-04-28T02:05:19;11.30;99.90
41922;DHT22;27609;51.002;5.354;2023-04-28T02:07:45;11.30;99.90
41922;DHT22;27609;51.002;5.354;2023-04-28T02:10:11;11.40;99.90
41922;DHT22;27609;51.002;5.354;2023-04-28T02:12:37;11.50;99.90
41922;DHT22;27609;51.002;5.354;2023-04-28T02:15:03;11.60;99.90
41922;DHT22;27609;51.002;5.354;2023-04-28T02:17:29;11.50;99.90
41922;DHT22;27609;51.002;5.354;2023-04-28T02:19:55;11.40;99.90
41922;DHT22;27609;51.002;5.354;2023-04-28T02:22:22;11.30;99.90
41922;DHT22;27609;51.002;5.354;2023-04-28T02:24:47;11.10;99.90
41922;DHT22;27609;51.002;5.354;2023-04-28T02:27:13;11.00;99.90
41922;DHT22;27609;51.002;5.354;2023-04-28T02:29:39;11.10;99.90
41922;DHT22;27609;51.002;5.354;2023-04-28T02:32:05;11.20;99.90
41922;DHT22;27609;51.002;5.354;2023-04-28T02:34:30;11.00;99.90
41922;DHT22;27609;51.002;5.354;2023-04-28T02:36:56;10.80;99.90
41922;DHT22;27609;51.002;5.354;2023-04-28T02:39:22;10.50;99.90
41922;DHT22;27609;51.002;5.354;2023-04-28T02:41:50;10.30;99.90
41922;DHT22;27609;51.002;5.354;2023-04-28T02:44:16;10.20;99.90
41922;DHT22;27609;51.002;5.354;2023-04-28T02:46:42;10.20;99.90
41922;DHT22;27609;51.002;5.354;2023-04-28T02:49:08;10.20;99.90
41922;DHT22;27609;51.002;5.354;2023-04-28T02:51:33;10.10;99.90
41922;DHT22;27609;51.002;5.354;2023-04-28T02:53:59;9.80;99.90
41922;DHT22;27609;51.002;5.354;2023-04-28T02:56:25;9.60;99.90
41922;DHT22;27609;51.002;5.354;2023-04-28T02:58:51;9.40;99.90
41922;DHT22;27609;51.002;5.354;2023-04-28T03:01:17;9.40;99.90
41922;DHT22;27609;51.002;5.354;2023-04-28T03:03:43;9.40;99.90
41922;DHT22;27609;51.002;5.354;2023-04-28T03:06:08;9.60;99.90
41922;DHT22;27609;51.002;5.354;2023-04-28T03:08:34;9.80;99.90
41922;DHT22;27609;51.002;5.354;2023-04-28T03:11:00;10.10;99.90
41922;DHT22;27609;51.002;5.354;2023-04-28T03:13:25;10.40;99.90
41922;DHT22;27609;51.002;5.354;2023-04-28T03:15:51;10.60;99.90
41922;DHT22;27609;51.002;5.354;2023-04-28T03:18:17;10.70;99.90
41922;DHT22;27609;51.002;5.354;2023-04-28T03:20:43;10.90;99.90
41922;DHT22;27609;51.002;5.354;2023-04-28T03:23:09;11.00;99.90
41922;DHT22;27609;51.002;5.354;2023-04-28T03:25:34;11.10;99.90
41922;DHT22;27609;51.002;5.354;2023-04-28T03:28:00;11.20;99.90
41922;DHT22;27609;51.002;5.354;2023-04-28T03:30:26;11.20;99.90
41922;DHT22;27609;51.002;5.354;2023-04-28T03:32:52;11.30;99.90
41922;DHT22;27609;51.002;5.354;2023-04-28T03:35:17;11.20;99.90
41922;DHT22;27609;51.002;5.354;2023-04-28T03:37:43;11.10;99.90
41922;DHT22;27609;51.002;5.354;2023-04-28T03:40:09;11.20;99.90
41922;DHT22;27609;51.002;5.354;2023-04-28T03:42:35;11.30;99.90
41922;DHT22;27609;51.002;5.354;2023-04-28T03:45:00;11.30;99.90
41922;DHT22;27609;51.002;5.354;2023-04-28T03:47:26;11.40;99.90
41922;DHT22;27609;51.002;5.354;2023-04-28T03:49:52;11.50;99.90
41922;DHT22;27609;51.002;5.354;2023-04-28T03:52:18;11.60;99.90
41922;DHT22;27609;51.002;5.354;2023-04-28T03:54:44;11.60;99.90
41922;DHT22;27609;51.002;5.354;2023-04-28T03:57:10;11.60;99.90
41922;DHT22;27609;51.002;5.354;2023-04-28T03:59:36;11.50;99.90
41922;DHT22;27609;51.002;5.354;2023-04-28T04:02:02;11.20;99.90
41922;DHT22;27609;51.002;5.354;2023-04-28T04:04:28;11.00;99.90
41922;DHT22;27609;51.002;5.354;2023-04-28T04:06:54;11.00;99.90
41922;DHT22;27609;51.002;5.354;2023-04-28T04:09:20;10.90;99.90
41922;DHT22;27609;51.002;5.354;2023-04-28T04:11:45;10.90;99.90
41922;DHT22;27609;51.002;5.354;2023-04-28T04:14:11;10.80;99.90
41922;DHT22;27609;51.002;5.354;2023-04-28T04:16:37;10.90;99.90
41922;DHT22;27609;51.002;5.354;2023-04-28T04:19:02;11.00;99.90
41922;DHT22;27609;51.002;5.354;2023-04-28T04:21:28;11.10;99.90
41922;DHT22;27609;51.002;5.354;2023-04-28T04:23:54;11.30;99.90
41922;DHT22;27609;51.002;5.354;2023-04-28T04:26:20;11.40;99.90
41922;DHT22;27609;51.002;5.354;2023-04-28T04:28:46;11.60;99.90
41922;DHT22;27609;51.002;5.354;2023-04-28T04:31:11;11.60;99.90
41922;DHT22;27609;51.002;5.354;2023-04-28T04:33:37;11.80;99.90
41922;DHT22;27609;51.002;5.354;2023-04-28T04:36:03;11.80;99.90
41922;DHT22;27609;51.002;5.354;2023-04-28T04:38:29;11.70;99.90
41922;DHT22;27609;51.002;5.354;2023-04-28T04:40:55;11.60;99.90
41922;DHT22;27609;51.002;5.354;2023-04-28T04:43:21;11.60;99.90
41922;DHT22;27609;51.002;5.354;2023-04-28T04:45:47;11.80;99.90
41922;DHT22;27609;51.002;5.354;2023-04-28T04:48:13;11.90;99.90
41922;DHT22;27609;51.002;5.354;2023-04-28T04:50:39;12.10;99.90
41922;DHT22;27609;51.002;5.354;2023-04-28T04:53:05;12.20;99.90
41922;DHT22;27609;51.002;5.354;2023-04-28T04:55:31;12.30;99.90
41922;DHT22;27609;51.002;5.354;2023-04-28T04:57:56;12.40;99.90
41922;DHT22;27609;51.002;5.354;2023-04-28T05:00:22;12.40;99.90
41922;DHT22;27609;51.002;5.354;2023-04-28T05:02:48;12.40;99.90
41922;DHT22;27609;51.002;5.354;2023-04-28T05:05:13;12.40;99.90
41922;DHT22;27609;51.002;5.354;2023-04-28T05:07:39;12.50;99.90
41922;DHT22;27609;51.002;5.354;2023-04-28T05:10:05;12.60;99.90
41922;DHT22;27609;51.002;5.354;2023-04-28T05:12:31;12.70;99.90
41922;DHT22;27609;51.002;5.354;2023-04-28T05:14:57;12.50;99.90
41922;DHT22;27609;51.002;5.354;2023-04-28T05:17:23;12.50;99.90
41922;DHT22;27609;51.002;5.354;2023-04-28T05:19:49;12.60;99.90
41922;DHT22;27609;51.002;5.354;2023-04-28T05:22:14;12.70;99.90
41922;DHT22;27609;51.002;5.354;2023-04-28T05:24:40;12.80;99.90
41922;DHT22;27609;51.002;5.354;2023-04-28T05:27:06;12.60;99.90
41922;DHT22;27609;51.002;5.354;2023-04-28T05:29:32;12.20;99.90
41922;DHT22;27609;51.002;5.354;2023-04-28T05:31:57;11.90;99.90
41922;DHT22;27609;51.002;5.354;2023-04-28T05:34:23;12.20;99.90
41922;DHT22;27609;51.002;5.354;2023-04-28T05:36:49;12.00;99.90
41922;DHT22;27609;51.002;5.354;2023-04-28T05:39:16;12.00;99.90
41922;DHT22;27609;51.002;5.354;2023-04-28T05:41:42;12.00;99.90
41922;DHT22;27609;51.002;5.354;2023-04-28T05:44:07;12.00;99.90
41922;DHT22;27609;51.002;5.354;2023-04-28T05:46:33;11.90;99.90
41922;DHT22;27609;51.002;5.354;2023-04-28T05:48:59;11.60;99.90
41922;DHT22;27609;51.002;5.354;2023-04-28T05:51:25;11.70;99.90
41922;DHT22;27609;51.002;5.354;2023-04-28T05:53:51;11.80;99.90
41922;DHT22;27609;51.002;5.354;2023-04-28T05:56:17;11.90;99.90
41922;DHT22;27609;51.002;5.354;2023-04-28T05:58:43;11.90;99.90
41922;DHT22;27609;51.002;5.354;2023-04-28T06:01:10;12.00;99.90
41922;DHT22;27609;51.002;5.354;2023-04-28T06:03:36;12.20;99.90
41922;DHT22;27609;51.002;5.354;2023-04-28T06:06:02;12.30;99.90
41922;DHT22;27609;51.002;5.354;2023-04-28T06:08:28;12.10;99.90
41922;DHT22;27609;51.002;5.354;2023-04-28T06:10:53;12.00;99.90
41922;DHT22;27609;51.002;5.354;2023-04-28T06:13:19;11.90;99.90
41922;DHT22;27609;51.002;5.354;2023-04-28T06:15:44;11.90;99.90
41922;DHT22;27609;51.002;5.354;2023-04-28T06:18:10;12.00;99.90
41922;DHT22;27609;51.002;5.354;2023-04-28T06:20:36;12.00;99.90
41922;DHT22;27609;51.002;5.354;2023-04-28T06:23:02;12.00;99.90
41922;DHT22;27609;51.002;5.354;2023-04-28T06:25:31;12.00;99.90
41922;DHT22;27609;51.002;5.354;2023-04-28T06:27:56;12.20;99.90
41922;DHT22;27609;51.002;5.354;2023-04-28T06:30:23;12.20;99.90
41922;DHT22;27609;51.002;5.354;2023-04-28T06:32:49;12.40;99.90
41922;DHT22;27609;51.002;5.354;2023-04-28T06:35:15;12.30;99.90
41922;DHT22;27609;51.002;5.354;2023-04-28T06:37:41;12.30;99.90
41922;DHT22;27609;51.002;5.354;2023-04-28T06:40:08;12.40;99.90
41922;DHT22;27609;51.002;5.354;2023-04-28T06:42:34;12.40;99.90
41922;DHT22;27609;51.002;5.354;2023-04-28T06:45:00;12.50;99.90
41922;DHT22;27609;51.002;5.354;2023-04-28T06:47:26;12.60;99.90
41922;DHT22;27609;51.002;5.354;2023-04-28T06:49:51;12.60;99.90
41922;DHT22;27609;51.002;5.354;2023-04-28T06:52:18;12.60;99.90
41922;DHT22;27609;51.002;5.354;2023-04-28T06:54:45;12.70;99.90
41922;DHT22;27609;51.002;5.354;2023-04-28T06:57:11;12.70;99.90
41922;DHT22;27609;51.002;5.354;2023-04-28T06:59:37;12.70;99.90
41922;DHT22;27609;51.002;5.354;2023-04-28T07:02:03;12.80;99.90
41922;DHT22;27609;51.002;5.354;2023-04-28T07:04:28;12.60;99.90
41922;DHT22;27609;51.002;5.354;2023-04-28T07:06:54;12.60;99.90
41922;DHT22;27609;51.002;5.354;2023-04-28T07:09:20;12.70;99.90
41922;DHT22;27609;51.002;5.354;2023-04-28T07:11:46;12.70;99.90
41922;DHT22;27609;51.002;5.354;2023-04-28T07:14:11;12.50;99.90
41922;DHT22;27609;51.002;5.354;2023-04-28T07:16:37;12.60;99.90
41922;DHT22;27609;51.002;5.354;2023-04-28T07:19:03;12.50;99.90
41922;DHT22;27609;51.002;5.354;2023-04-28T07:21:28;12.40;99.90
41922;DHT22;27609;51.002;5.354;2023-04-28T07:23:54;12.60;99.90
41922;DHT22;27609;51.002;5.354;2023-04-28T07:26:23;12.50;99.90
41922;DHT22;27609;51.002;5.354;2023-04-28T07:28:48;12.50;99.90
41922;DHT22;27609;51.002;5.354;2023-04-28T07:31:14;12.50;99.90
41922;DHT22;27609;51.002;5.354;2023-04-28T07:33:40;12.60;99.90
41922;DHT22;27609;51.002;5.354;2023-04-28T07:36:06;12.60;99.90
41922;DHT22;27609;51.002;5.354;2023-04-28T07:38:33;12.70;99.90
41922;DHT22;27609;51.002;5.354;2023-04-28T07:40:59;12.80;99.90
41922;DHT22;27609;51.002;5.354;2023-04-28T07:43:25;12.90;99.90
41922;DHT22;27609;51.002;5.354;2023-04-28T07:45:51;12.80;99.90
41922;DHT22;27609;51.002;5.354;2023-04-28T07:48:17;13.00;99.90
41922;DHT22;27609;51.002;5.354;2023-04-28T07:50:42;13.00;99.90
41922;DHT22;27609;51.002;5.354;2023-04-28T07:53:08;13.10;99.90
41922;DHT22;27609;51.002;5.354;2023-04-28T07:55:34;13.40;99.90
41922;DHT22;27609;51.002;5.354;2023-04-28T07:58:00;13.60;99.90
41922;DHT22;27609;51.002;5.354;2023-04-28T08:00:26;13.80;99.90
41922;DHT22;27609;51.002;5.354;2023-04-28T08:02:51;14.10;99.90
41922;DHT22;27609;51.002;5.354;2023-04-28T08:05:17;14.20;99.90
41922;DHT22;27609;51.002;5.354;2023-04-28T08:07:43;14.20;99.90
41922;DHT22;27609;51.002;5.354;2023-04-28T08:10:10;14.20;99.90
41922;DHT22;27609;51.002;5.354;2023-04-28T08:12:36;14.30;99.90
41922;DHT22;27609;51.002;5.354;2023-04-28T08:15:02;14.50;99.90
41922;DHT22;27609;51.002;5.354;2023-04-28T08:17:28;14.60;99.90
41922;DHT22;27609;51.002;5.354;2023-04-28T08:19:54;14.50;99.90
41922;DHT22;27609;51.002;5.354;2023-04-28T08:22:20;14.50;99.90
41922;DHT22;27609;51.002;5.354;2023-04-28T08:24:45;14.70;99.90
41922;DHT22;27609;51.002;5.354;2023-04-28T08:27:11;14.80;99.90
41922;DHT22;27609;51.002;5.354;2023-04-28T08:29:37;15.00;99.90
41922;DHT22;27609;51.002;5.354;2023-04-28T08:32:04;15.00;99.90
41922;DHT22;27609;51.002;5.354;2023-04-28T08:34:31;15.20;99.90
41922;DHT22;27609;51.002;5.354;2023-04-28T08:36:57;15.00;99.90
41922;DHT22;27609;51.002;5.354;2023-04-28T08:39:23;15.00;99.90
41922;DHT22;27609;51.002;5.354;2023-04-28T08:41:51;15.10;99.90
41922;DHT22;27609;51.002;5.354;2023-04-28T08:44:17;15.30;99.90
41922;DHT22;27609;51.002;5.354;2023-04-28T08:46:43;15.40;99.90
41922;DHT22;27609;51.002;5.354;2023-04-28T08:49:17;15.40;99.90
41922;DHT22;27609;51.002;5.354;2023-04-28T08:51:54;15.50;99.90
41922;DHT22;27609;51.002;5.354;2023-04-28T08:54:20;15.50;99.90
41922;DHT22;27609;51.002;5.354;2023-04-28T08:56:48;15.50;99.90
41922;DHT22;27609;51.002;5.354;2023-04-28T08:59:14;15.70;99.90
41922;DHT22;27609;51.002;5.354;2023-04-28T09:01:40;15.90;99.90
41922;DHT22;27609;51.002;5.354;2023-04-28T09:04:06;17.00;99.90
41922;DHT22;27609;51.002;5.354;2023-04-28T09:06:36;18.60;99.90
41922;DHT22;27609;51.002;5.354;2023-04-28T09:09:29;19.80;99.90
41922;DHT22;27609;51.002;5.354;2023-04-28T09:11:57;20.30;99.90
41922;DHT22;27609;51.002;5.354;2023-04-28T09:14:29;20.40;99.90
41922;DHT22;27609;51.002;5.354;2023-04-28T09:16:55;19.80;99.90
41922;DHT22;27609;51.002;5.354;2023-04-28T09:19:21;19.30;99.90
41922;DHT22;27609;51.002;5.354;2023-04-28T09:21:54;18.80;99.90
41922;DHT22;27609;51.002;5.354;2023-04-28T09:24:33;18.10;99.90
41922;DHT22;27609;51.002;5.354;2023-04-28T09:27:01;17.50;99.90
41922;DHT22;27609;51.002;5.354;2023-04-28T09:29:27;16.90;99.90
41922;DHT22;27609;51.002;5.354;2023-04-28T09:31:53;16.70;99.90
41922;DHT22;27609;51.002;5.354;2023-04-28T09:34:22;16.70;99.90
41922;DHT22;27609;51.002;5.354;2023-04-28T09:36:48;16.80;99.90
41922;DHT22;27609;51.002;5.354;2023-04-28T09:39:14;17.10;99.90
41922;DHT22;27609;51.002;5.354;2023-04-28T09:41:42;17.40;99.90
41922;DHT22;27609;51.002;5.354;2023-04-28T09:44:18;17.50;99.90
41922;DHT22;27609;51.002;5.354;2023-04-28T09:46:46;17.60;99.90
41922;DHT22;27609;51.002;5.354;2023-04-28T09:49:12;18.10;99.90
41922;DHT22;27609;51.002;5.354;2023-04-28T09:51:39;18.50;99.90
41922;DHT22;27609;51.002;5.354;2023-04-28T09:54:05;18.50;99.90
41922;DHT22;27609;51.002;5.354;2023-04-28T09:56:33;18.70;99.90
41922;DHT22;27609;51.002;5.354;2023-04-28T09:59:00;19.00;99.90
41922;DHT22;27609;51.002;5.354;2023-04-28T10:01:28;18.90;99.90
41922;DHT22;27609;51.002;5.354;2023-04-28T10:03:55;19.40;99.90
41922;DHT22;27609;51.002;5.354;2023-04-28T10:06:22;19.30;99.90
41922;DHT22;27609;51.002;5.354;2023-04-28T10:08:50;19.00;99.90
41922;DHT22;27609;51.002;5.354;2023-04-28T10:11:16;18.70;99.90
41922;DHT22;27609;51.002;5.354;2023-04-28T10:13:42;18.50;99.90
41922;DHT22;27609;51.002;5.354;2023-04-28T10:16:09;18.50;99.90
41922;DHT22;27609;51.002;5.354;2023-04-28T10:18:36;18.40;99.90
41922;DHT22;27609;51.002;5.354;2023-04-28T10:21:03;18.40;99.90
41922;DHT22;27609;51.002;5.354;2023-04-28T10:27:06;18.10;99.90
41922;DHT22;27609;51.002;5.354;2023-04-28T10:29:33;18.10;99.90
41922;DHT22;27609;51.002;5.354;2023-04-28T10:32:20;17.90;99.90
41922;DHT22;27609;51.002;5.354;2023-04-28T10:34:47;18.00;99.90
41922;DHT22;27609;51.002;5.354;2023-04-28T10:37:13;17.60;99.90
41922;DHT22;27609;51.002;5.354;2023-04-28T10:42:53;17.50;99.90
41922;DHT22;27609;51.002;5.354;2023-04-28T10:48:22;18.10;99.90
41922;DHT22;27609;51.002;5.354;2023-04-28T10:56:18;19.70;99.90
41922;DHT22;27609;51.002;5.354;2023-04-28T10:58:47;20.10;99.90
41922;DHT22;27609;51.002;5.354;2023-04-28T11:08:55;20.30;99.90
41922;DHT22;27609;51.002;5.354;2023-04-28T11:11:23;21.60;99.90
41922;DHT22;27609;51.002;5.354;2023-04-28T11:13:51;22.40;99.90
41922;DHT22;27609;51.002;5.354;2023-04-28T11:16:22;22.30;99.90
41922;DHT22;27609;51.002;5.354;2023-04-28T11:21:20;21.40;99.90
41922;DHT22;27609;51.002;5.354;2023-04-28T11:23:46;20.70;99.90
41922;DHT22;27609;51.002;5.354;2023-04-28T11:26:12;20.30;99.90
41922;DHT22;27609;51.002;5.354;2023-04-28T11:28:49;20.00;99.90
41922;DHT22;27609;51.002;5.354;2023-04-28T11:31:15;19.70;99.90
41922;DHT22;27609;51.002;5.354;2023-04-28T11:34:05;19.60;99.90
41922;DHT22;27609;51.002;5.354;2023-04-28T11:36:36;19.50;99.90
41922;DHT22;27609;51.002;5.354;2023-04-28T11:39:04;19.30;99.90
41922;DHT22;27609;51.002;5.354;2023-04-28T11:41:32;19.30;99.90
41922;DHT22;27609;51.002;5.354;2023-04-28T11:43:59;19.10;99.90
41922;DHT22;27609;51.002;5.354;2023-04-28T11:46:25;19.30;99.90
41922;DHT22;27609;51.002;5.354;2023-04-28T11:49:09;19.70;99.90
41922;DHT22;27609;51.002;5.354;2023-04-28T11:51:36;19.90;99.90
41922;DHT22;27609;51.002;5.354;2023-04-28T11:54:06;20.30;99.90
41922;DHT22;27609;51.002;5.354;2023-04-28T11:56:41;20.10;99.90
41922;DHT22;27609;51.002;5.354;2023-04-28T11:59:10;20.10;99.90
41922;DHT22;27609;51.002;5.354;2023-04-28T12:01:50;20.40;99.90
41922;DHT22;27609;51.002;5.354;2023-04-28T12:07:16;21.50;99.90
41922;DHT22;27609;51.002;5.354;2023-04-28T12:09:44;21.80;99.90
41922;DHT22;27609;51.002;5.354;2023-04-28T12:12:12;21.90;99.90
41922;DHT22;27609;51.002;5.354;2023-04-28T12:17:29;21.80;99.90
41922;DHT22;27609;51.002;5.354;2023-04-28T12:19:56;21.30;99.90
41922;DHT22;27609;51.002;5.354;2023-04-28T12:22:23;21.10;99.90
41922;DHT22;27609;51.002;5.354;2023-04-28T12:27:27;23.40;99.90
41922;DHT22;27609;51.002;5.354;2023-04-28T12:29:53;23.20;99.90
41922;DHT22;27609;51.002;5.354;2023-04-28T12:32:39;23.30;99.90
41922;DHT22;27609;51.002;5.354;2023-04-28T12:35:06;22.70;99.90
41922;DHT22;27609;51.002;5.354;2023-04-28T12:37:32;22.10;99.90
41922;DHT22;27609;51.002;5.354;2023-04-28T12:39:58;21.20;99.90
41922;DHT22;27609;51.002;5.354;2023-04-28T12:42:23;20.70;99.90
41922;DHT22;27609;51.002;5.354;2023-04-28T12:44:49;20.60;99.90
41922;DHT22;27609;51.002;5.354;2023-04-28T12:47:15;20.50;99.90
41922;DHT22;27609;51.002;5.354;2023-04-28T12:49:43;20.40;99.90
41922;DHT22;27609;51.002;5.354;2023-04-28T12:52:09;20.00;99.90
41922;DHT22;27609;51.002;5.354;2023-04-28T12:54:35;20.00;99.90
41922;DHT22;27609;51.002;5.354;2023-04-28T12:57:01;20.30;99.90
41922;DHT22;27609;51.002;5.354;2023-04-28T12:59:27;20.60;99.90
41922;DHT22;27609;51.002;5.354;2023-04-28T13:01:53;21.00;99.90
41922;DHT22;27609;51.002;5.354;2023-04-28T13:04:20;21.20;99.90
41922;DHT22;27609;51.002;5.354;2023-04-28T13:06:46;21.00;99.90
41922;DHT22;27609;51.002;5.354;2023-04-28T13:09:13;21.00;99.90
41922;DHT22;27609;51.002;5.354;2023-04-28T13:11:40;20.80;99.90
41922;DHT22;27609;51.002;5.354;2023-04-28T13:14:06;20.60;99.90
41922;DHT22;27609;51.002;5.354;2023-04-28T13:16:32;19.90;99.90
41922;DHT22;27609;51.002;5.354;2023-04-28T13:18:59;19.60;99.90
41922;DHT22;27609;51.002;5.354;2023-04-28T13:21:26;19.60;99.90
41922;DHT22;27609;51.002;5.354;2023-04-28T13:23:53;19.80;99.90
41922;DHT22;27609;51.002;5.354;2023-04-28T13:26:19;20.00;99.90
41922;DHT22;27609;51.002;5.354;2023-04-28T13:28:48;19.90;99.90
41922;DHT22;27609;51.002;5.354;2023-04-28T13:31:14;19.60;99.90
41922;DHT22;27609;51.002;5.354;2023-04-28T13:33:40;19.30;99.90
41922;DHT22;27609;51.002;5.354;2023-04-28T13:36:06;19.30;99.90
41922;DHT22;27609;51.002;5.354;2023-04-28T13:38:33;19.60;99.90
41922;DHT22;27609;51.002;5.354;2023-04-28T13:40:58;19.60;99.90
41922;DHT22;27609;51.002;5.354;2023-04-28T13:43:25;19.60;99.90
41922;DHT22;27609;51.002;5.354;2023-04-28T13:45:51;19.60;99.90
41922;DHT22;27609;51.002;5.354;2023-04-28T13:48:17;19.40;99.90
41922;DHT22;27609;51.002;5.354;2023-04-28T13:50:43;19.90;99.90
41922;DHT22;27609;51.002;5.354;2023-04-28T13:53:09;20.20;99.90
41922;DHT22;27609;51.002;5.354;2023-04-28T13:55:35;20.00;99.90
41922;DHT22;27609;51.002;5.354;2023-04-28T13:58:01;19.60;99.90
41922;DHT22;27609;51.002;5.354;2023-04-28T14:00:30;19.10;99.90
41922;DHT22;27609;51.002;5.354;2023-04-28T14:02:57;18.80;99.90
41922;DHT22;27609;51.002;5.354;2023-04-28T14:05:22;18.70;99.90
41922;DHT22;27609;51.002;5.354;2023-04-28T14:07:48;18.70;99.90
41922;DHT22;27609;51.002;5.354;2023-04-28T14:10:14;18.50;99.90
41922;DHT22;27609;51.002;5.354;2023-04-28T14:12:40;18.50;99.90
41922;DHT22;27609;51.002;5.354;2023-04-28T14:15:06;18.50;99.90
41922;DHT22;27609;51.002;5.354;2023-04-28T14:17:31;18.50;99.90
41922;DHT22;27609;51.002;5.354;2023-04-28T14:20:02;18.30;99.90
41922;DHT22;27609;51.002;5.354;2023-04-28T14:22:28;18.00;99.90
41922;DHT22;27609;51.002;5.354;2023-04-28T14:24:54;17.80;99.90
41922;DHT22;27609;51.002;5.354;2023-04-28T14:27:20;18.00;99.90
41922;DHT22;27609;51.002;5.354;2023-04-28T14:29:47;18.20;99.90
41922;DHT22;27609;51.002;5.354;2023-04-28T14:32:13;18.50;99.90
41922;DHT22;27609;51.002;5.354;2023-04-28T14:34:41;18.30;99.90
41922;DHT22;27609;51.002;5.354;2023-04-28T14:37:07;18.20;99.90
41922;DHT22;27609;51.002;5.354;2023-04-28T14:39:33;18.20;99.90
41922;DHT22;27609;51.002;5.354;2023-04-28T14:41:59;17.70;99.90
41922;DHT22;27609;51.002;5.354;2023-04-28T14:44:25;17.40;99.90
41922;DHT22;27609;51.002;5.354;2023-04-28T14:46:51;17.10;99.90
41922;DHT22;27609;51.002;5.354;2023-04-28T14:49:17;17.10;99.90
41922;DHT22;27609;51.002;5.354;2023-04-28T14:51:43;17.10;99.90
41922;DHT22;27609;51.002;5.354;2023-04-28T14:54:10;17.20;99.90
41922;DHT22;27609;51.002;5.354;2023-04-28T14:56:36;17.00;99.90
41922;DHT22;27609;51.002;5.354;2023-04-28T14:59:02;17.20;99.90
41922;DHT22;27609;51.002;5.354;2023-04-28T15:01:28;17.10;99.90
41922;DHT22;27609;51.002;5.354;2023-04-28T15:03:54;17.40;99.90
41922;DHT22;27609;51.002;5.354;2023-04-28T15:06:19;17.40;99.90
41922;DHT22;27609;51.002;5.354;2023-04-28T15:08:45;17.40;99.90
41922;DHT22;27609;51.002;5.354;2023-04-28T15:11:11;17.50;99.90
41922;DHT22;27609;51.002;5.354;2023-04-28T15:13:36;17.30;99.90
41922;DHT22;27609;51.002;5.354;2023-04-28T15:16:02;17.10;99.90
41922;DHT22;27609;51.002;5.354;2023-04-28T15:18:28;17.10;99.90
41922;DHT22;27609;51.002;5.354;2023-04-28T15:20:54;17.00;99.90
41922;DHT22;27609;51.002;5.354;2023-04-28T15:23:19;17.00;99.90
41922;DHT22;27609;51.002;5.354;2023-04-28T15:25:45;16.90;99.90
41922;DHT22;27609;51.002;5.354;2023-04-28T15:28:11;16.80;99.90
41922;DHT22;27609;51.002;5.354;2023-04-28T15:30:37;17.00;99.90
41922;DHT22;27609;51.002;5.354;2023-04-28T15:33:03;17.10;99.90
41922;DHT22;27609;51.002;5.354;2023-04-28T15:35:28;17.30;99.90
41922;DHT22;27609;51.002;5.354;2023-04-28T15:37:56;17.20;99.90
41922;DHT22;27609;51.002;5.354;2023-04-28T15:40:22;17.10;99.90
41922;DHT22;27609;51.002;5.354;2023-04-28T15:42:48;17.10;99.90
41922;DHT22;27609;51.002;5.354;2023-04-28T15:45:20;17.20;99.90
41922;DHT22;27609;51.002;5.354;2023-04-28T15:47:47;17.10;99.90
41922;DHT22;27609;51.002;5.354;2023-04-28T15:50:14;17.20;99.90
41922;DHT22;27609;51.002;5.354;2023-04-28T15:52:42;17.40;99.90
41922;DHT22;27609;51.002;5.354;2023-04-28T15:55:15;17.40;99.90
41922;DHT22;27609;51.002;5.354;2023-04-28T15:57:41;17.60;99.90
41922;DHT22;27609;51.002;5.354;2023-04-28T16:00:08;17.60;99.90